Latest Weather Observations for Mount Lofty

IDS60801

Issued at 8:41 pm CDT Sunday 24 January 2021 (issued every 10 minutes, with the page automatically refreshed every 10 minutes)

About weather observations | Map of weather stations | Latest weather observations for SA | Other Formats
Station Details ID: 023842 Name: MOUNT LOFTY Lat: -34.98 Lon: 138.71 Height: 685.0 m
Data from the previous 72 hours. | See also: Recent months at Mount Lofty
Date/Time
CDT
Temp
°C
App
Temp
°C
Dew
Point
°C
Rel
Hum
%
Delta-T
°C
Wind Press
QNH
hPa
Press
MSL
hPa
Rain since
9am
mm
Dir  Spd
km/h
Gust
km/h
Spd
kts
Gust
kts
24/08:30pm 30.3 27.7 3.4 18 14.1 W 6 9 3 5 - - 0.0
24/08:00pm 30.1 28.0 4.0 19 13.8 W 4 9 2 5 - - 0.0
24/07:30pm 30.9 28.4 3.8 18 14.3 W 6 13 3 7 - - 0.0
24/07:00pm 32.6 29.9 2.6 15 15.7 WNW 6 17 3 9 - - 0.0
24/06:30pm 33.7 31.0 3.5 15 16.1 WNW 7 19 4 10 - - 0.0
24/06:00pm 35.5 31.9 2.9 13 17.4 WNW 11 28 6 15 - - 0.0
24/05:30pm 36.1 31.8 1.0 11 18.3 WNW 13 28 7 15 - - 0.0
24/05:00pm 36.1 31.6 2.2 12 18.0 WNW 15 26 8 14 - - 0.0
24/04:30pm 36.3 31.8 2.4 12 18.1 WNW 15 32 8 17 - - 0.0
24/04:00pm 35.6 31.4 1.8 12 17.8 WNW 13 26 7 14 - - 0.0
24/03:30pm 35.9 30.6 2.1 12 17.9 WNW 19 32 10 17 - - 0.0
24/03:00pm 35.6 30.7 1.8 12 17.8 WNW 17 32 9 17 - - 0.0
24/02:30pm 36.0 31.1 2.1 12 17.9 WNW 17 32 9 17 - - 0.0
24/02:00pm 35.8 30.5 3.1 13 17.6 WNW 20 35 11 19 - - 0.0
24/01:30pm 35.1 30.7 2.6 13 17.3 WNW 15 30 8 16 - - 0.0
24/01:00pm 35.4 30.6 0.5 11 18.0 WNW 15 30 8 16 - - 0.0
24/12:30pm 34.9 30.1 0.1 11 17.7 WNW 15 33 8 18 - - 0.0
24/12:00pm 34.7 30.2 -0.1 11 17.7 NNW 13 20 7 11 - - 0.0
24/11:30am 33.8 29.4 0.5 12 17.0 NNW 13 22 7 12 - - 0.0
24/11:00am 32.4 27.9 -0.6 12 16.4 NNW 13 22 7 12 - - 0.0
24/10:30am 31.7 27.1 -1.2 12 16.1 N 13 28 7 15 - - 0.0
24/10:00am 30.6 26.0 -0.9 13 15.4 NNE 13 35 7 19 - - 0.0
24/09:30am 30.1 25.1 -1.3 13 15.2 NNE 15 26 8 14 - - 0.0
24/09:00am 29.9 24.9 -1.5 13 15.1 NNE 15 28 8 15 - - 0.0
24/08:30am 29.7 24.8 -0.6 14 14.8 NE 15 39 8 21 - - 0.0
24/08:00am 28.9 23.9 -1.2 14 14.4 NE 15 32 8 17 - - 0.0
24/07:30am 28.6 23.6 -1.5 14 14.3 NE 15 32 8 17 - - 0.0
24/07:00am 28.4 23.5 -0.7 15 14.0 NE 15 30 8 16 - - 0.0
24/06:30am 28.3 23.7 -0.8 15 14.0 NE 13 28 7 15 - - 0.0
24/06:00am 27.8 23.8 0.5 17 13.4 ENE 11 24 6 13 - - 0.0
24/05:30am 26.7 22.9 1.9 20 12.4 E 11 24 6 13 - - 0.0
24/05:00am 25.6 23.0 4.1 25 11.1 ESE 7 22 4 12 - - 0.0
24/04:30am 25.2 22.8 5.4 28 10.4 E 7 22 4 12 - - 0.0
24/04:00am 24.9 22.6 5.7 29 10.1 E 7 15 4 8 - - 0.0
24/03:30am 24.6 22.0 5.9 30 9.9 ESE 9 20 5 11 - - 0.0
24/03:00am 24.4 21.8 6.2 31 9.7 ESE 9 20 5 11 - - 0.0
24/02:30am 24.5 21.9 6.3 31 9.7 ESE 9 17 5 9 - - 0.0
24/02:00am 24.8 22.2 6.1 30 9.9 ESE 9 24 5 13 - - 0.0
24/01:30am 24.8 22.6 6.1 30 9.9 ESE 7 15 4 8 - - 0.0
24/01:00am 24.4 21.8 6.2 31 9.7 ESE 9 17 5 9 - - 0.0
24/12:30am 24.0 21.5 6.7 33 9.2 ESE 9 17 5 9 - - 0.0
24/12:00am 24.3 21.8 6.6 32 9.5 ESE 9 17 5 9 - - 0.0
 
Date/Time
CDT
Temp
°C
App
Temp
°C
Dew
Point
°C
Rel
Hum
%
Delta-T
°C
Wind Press
QNH
hPa
Press
MSL
hPa
Rain since
9am
mm
Dir  Spd
km/h
Gust
km/h
Spd
kts
Gust
kts
23/11:30pm 24.5 21.6 6.7 32 9.5 ESE 11 19 6 10 - - 0.0
23/11:00pm 24.2 21.3 6.5 32 9.4 ESE 11 19 6 10 - - 0.0
23/10:30pm 24.5 21.6 6.7 32 9.5 ESE 11 19 6 10 - - 0.0
23/10:00pm 24.6 21.7 6.4 31 9.7 ESE 11 17 6 9 - - 0.0
23/09:30pm 24.9 22.4 6.6 31 9.8 ESE 9 17 5 9 - - 0.0
23/09:00pm 25.1 22.7 6.8 31 9.9 ESE 9 15 5 8 - - 0.0
23/08:30pm 25.5 23.4 6.7 30 10.1 ESE 7 15 4 8 - - 0.0
23/08:00pm 27.0 25.0 6.9 28 11.0 ESE 7 17 4 9 - - 0.0
23/07:30pm 28.7 26.9 7.3 26 11.9 SE 6 13 3 7 - - 0.0
23/07:00pm 30.1 28.2 6.7 23 12.9 SE 6 11 3 6 - - 0.0
23/06:30pm 31.6 29.3 5.9 20 14.1 S 7 17 4 9 - - 0.0
23/06:00pm 32.8 29.8 0.8 13 16.3 SSW 6 11 3 6 - - 0.0
23/05:30pm 33.7 31.0 0.4 12 16.9 NNW 4 11 2 6 - - 0.0
23/05:00pm 32.9 29.7 -0.2 12 16.6 ESE 6 9 3 5 - - 0.0
23/04:30pm 33.8 30.8 0.5 12 17.0 W 6 13 3 7 - - 0.0
23/04:00pm 34.3 31.1 0.8 12 17.2 W 7 15 4 8 - - 0.0
23/03:30pm 33.5 29.8 0.2 12 16.9 W 9 26 5 14 - - 0.0
23/03:00pm 33.7 30.2 1.5 13 16.7 WNW 9 17 5 9 - - 0.0
23/02:30pm 33.1 29.7 2.1 14 16.1 WSW 9 17 5 9 - - 0.0
23/02:00pm 31.9 28.4 1.1 14 15.7 NNW 9 19 5 10 - - 0.0
23/01:30pm 32.3 29.2 1.4 14 15.8 WNW 7 17 4 9 - - 0.0
23/01:00pm 31.8 28.6 1.0 14 15.6 WNW 7 19 4 10 - - 0.0
23/12:30pm 30.7 27.2 1.1 15 14.9 NW 9 19 5 10 - - 0.0
23/12:00pm 30.3 27.4 2.5 17 14.3 NW 7 11 4 6 - - 0.0
23/11:30am 29.6 26.9 3.6 19 13.6 N 7 15 4 8 - - 0.0
23/11:00am 28.9 26.0 4.4 21 12.9 NNW 9 19 5 10 - - 0.0
23/10:30am 28.3 25.5 3.2 20 12.9 NE 7 13 4 7 - - 0.0
23/10:00am 28.4 26.1 4.6 22 12.6 ESE 6 11 3 6 - - 0.0
23/09:30am 26.8 24.3 4.6 24 11.6 NE 7 17 4 9 - - 0.0
23/09:00am 25.8 23.4 4.3 25 11.1 ENE 6 15 3 8 - - 0.0
23/08:30am 24.6 22.1 3.8 26 10.6 ENE 6 15 3 8 - - 0.0
23/08:00am 23.4 20.7 3.9 28 9.9 NE 7 17 4 9 - - 0.0
23/07:30am 22.9 20.1 2.9 27 9.9 NE 7 13 4 7 - - 0.0
23/07:00am 22.0 18.6 1.6 26 9.8 NE 9 15 5 8 - - 0.0
23/06:30am 21.6 18.6 1.8 27 9.5 NE 7 13 4 7 - - 0.0
23/06:00am 20.0 17.8 1.0 28 8.9 ENE 2 6 1 3 - - 0.0
23/05:30am 20.0 16.7 -4.3 19 10.2 ESE 4 6 2 3 - - 0.0
23/05:00am 20.2 16.1 -9.1 13 11.2 ESE 6 7 3 4 - - 0.0
23/04:30am 19.6 15.2 -12.8 10 11.5 ESE 6 7 3 4 - - 0.0
23/04:00am 20.1 15.7 -12.4 10 11.7 ESE 6 7 3 4 - - 0.0
23/03:30am 19.7 15.3 -12.7 10 11.5 ESE 6 9 3 5 - - 0.0
23/03:00am 19.4 15.0 -13.0 10 11.4 ESE 6 9 3 5 - - 0.0
23/02:30am 19.4 14.8 -13.0 10 11.4 ESE 7 9 4 5 - - 0.0
23/02:00am 19.5 14.9 -12.9 10 11.4 ESE 7 9 4 5 - - 0.0
23/01:30am 19.5 14.8 -14.2 9 11.6 ESE 7 13 4 7 - - 0.0
23/01:00am 19.5 14.5 -14.2 9 11.6 ESE 9 11 5 6 - - 0.0
23/12:30am 19.5 14.9 -12.9 10 11.4 ESE 7 11 4 6 - - 0.0
23/12:00am 19.4 14.8 -13.0 10 11.4 ESE 7 13 4 7 - - 0.0
 
Date/Time
CDT
Temp
°C
App
Temp
°C
Dew
Point
°C
Rel
Hum
%
Delta-T
°C
Wind Press
QNH
hPa
Press
MSL
hPa
Rain since
9am
mm
Dir  Spd
km/h
Gust
km/h
Spd
kts
Gust
kts
22/11:30pm 19.5 15.0 -11.7 11 11.3 ESE 7 13 4 7 - - 0.0
22/11:00pm 18.0 13.9 -6.6 18 9.7 ESE 7 11 4 6 - - 0.0
22/10:30pm 18.0 14.3 -2.8 24 8.9 ESE 7 13 4 7 - - 0.0
22/10:00pm 17.6 14.1 1.2 33 7.6 ESE 9 13 5 7 - - 0.0
22/09:30pm 18.4 14.9 1.4 32 7.9 ESE 9 13 5 7 - - 0.0
22/09:00pm 19.2 16.1 3.4 35 7.7 ESE 9 15 5 8 - - 0.0
22/08:30pm 20.0 17.1 4.5 36 7.8 ESE 9 13 5 7 - - 0.0
22/08:00pm 21.4 19.5 7.6 41 7.4 ESE 7 11 4 6 - - 0.0
22/07:30pm 22.4 20.9 8.5 41 7.6 ESE 6 9 3 5 - - 0.0
22/07:00pm 23.2 21.7 8.5 39 8.1 ESE 6 9 3 5 - - 0.0
22/06:30pm 24.3 22.6 8.3 36 8.8 SE 7 11 4 6 - - 0.0
22/06:00pm 26.1 24.5 8.1 32 10.0 SE 6 11 3 6 - - 0.0
22/05:30pm 28.8 27.4 7.4 26 11.9 S 4 7 2 4 - - 0.0
22/05:00pm 29.1 26.2 2.4 18 13.6 WNW 7 17 4 9 - - 0.0
22/04:30pm 29.1 26.5 3.1 19 13.4 W 6 17 3 9 - - 0.0
22/04:00pm 29.1 26.0 1.6 17 13.9 W 7 17 4 9 - - 0.0
22/03:30pm 28.7 25.3 -0.5 15 14.2 W 7 11 4 6 - - 0.0
22/03:00pm 28.5 25.4 1.1 17 13.6 W 7 15 4 8 - - 0.0
22/02:30pm 28.6 25.9 2.7 19 13.3 WSW 6 17 3 9 - - 0.0
22/02:00pm 27.2 24.1 1.6 19 12.7 WNW 7 15 4 8 - - 0.0
22/01:30pm 27.4 24.6 3.2 21 12.4 W 7 13 4 7 - - 0.0
22/01:00pm 26.3 23.5 5.3 26 11.1 WNW 9 15 5 8 - - 0.0
22/12:30pm 26.9 24.8 5.8 26 11.3 WNW 6 13 3 7 - - 0.0
22/12:00pm 26.0 23.8 3.3 23 11.6 WSW 4 11 2 6 - - 0.0
22/11:30am 25.2 22.5 2.6 23 11.3 W 6 11 3 6 - - 0.0
22/11:00am 24.6 21.8 2.1 23 11.1 W 6 11 3 6 - - 0.0
22/10:30am 23.8 21.0 2.0 24 10.7 WNW 6 9 3 5 - - 0.0
22/10:00am 23.4 21.1 2.8 26 10.2 W 4 6 2 3 - - 0.0
22/09:30am 23.2 20.5 0.3 22 10.8 W 4 7 2 4 - - 0.0
22/09:00am 22.1 20.2 2.8 28 9.5 WNW 2 7 1 4 - - 0.0
22/08:30am 21.4 19.2 1.1 26 9.6 W 2 4 1 2 - - 0.0
22/08:00am 19.9 17.8 1.4 29 8.7 W 2 2 1 1 - - 0.0
22/07:30am 18.1 15.7 2.0 34 7.6 WSW 4 6 2 3 - - 0.0
22/07:00am 17.3 14.8 1.7 35 7.2 WNW 4 4 2 2 - - 0.0
22/06:30am 17.2 15.0 1.2 34 7.3 W 2 2 1 1 - - 0.0
22/06:00am 18.6 16.8 1.2 31 8.1 CALM 0 2 0 1 - - 0.0
22/05:30am 18.9 16.8 1.4 31 8.2 WSW 2 2 1 1 - - 0.0
22/05:00am 18.4 16.2 1.0 31 8.0 WSW 2 4 1 2 - - 0.0
22/04:30am 19.8 17.9 0.3 27 9.0 CALM 0 0 0 0 - - 0.0
22/04:00am 18.0 15.7 2.7 36 7.3 ESE 4 6 2 3 - - 0.0
22/03:30am 17.6 14.4 -3.7 23 8.9 ESE 4 6 2 3 - - 0.0
22/03:00am 17.4 13.6 -5.8 20 9.2 ESE 6 9 3 5 - - 0.0
22/02:30am 17.1 13.4 -4.8 22 8.9 ESE 6 9 3 5 - - 0.0
22/02:00am 17.0 13.3 -4.3 23 8.7 ESE 6 7 3 4 - - 0.0
22/01:30am 16.7 13.1 -3.9 24 8.5 ESE 6 13 3 7 - - 0.0
22/01:00am 16.1 12.6 -1.0 31 7.4 ESE 7 9 4 5 - - 0.0
22/12:30am 16.8 12.9 -1.3 29 7.9 ESE 9 17 5 9 - - 0.0
22/12:00am 17.1 13.2 -1.5 28 8.1 ESE 9 15 5 8 - - 0.0
 
Date/Time
CDT
Temp
°C
App
Temp
°C
Dew
Point
°C
Rel
Hum
%
Delta-T
°C
Wind Press
QNH
hPa
Press
MSL
hPa
Rain since
9am
mm
Dir  Spd
km/h
Gust
km/h
Spd
kts
Gust
kts
21/11:30pm 17.6 13.6 -2.1 26 8.5 ESE 9 15 5 8 - - 0.0
21/11:00pm 17.0 13.4 0.6 33 7.4 ESE 9 13 5 7 - - 0.0
21/10:30pm 17.4 14.2 1.0 33 7.5 ESE 7 15 4 8 - - 0.0
21/10:00pm 17.2 14.3 1.6 35 7.2 ESE 6 11 3 6 - - 0.0
21/09:30pm 17.9 14.6 2.2 35 7.4 ESE 9 13 5 7 - - 0.0
21/09:00pm 19.2 15.8 2.1 32 8.1 ESE 9 13 5 7 - - 0.0

Other formats

Comma delimited format used in spreadsheet applications
http://www.bom.gov.au/fwo/IDS60801/IDS60801.95678.axf

JavaScript Object Notation format (JSON) in row-major order
http://www.bom.gov.au/fwo/IDS60801/IDS60801.95678.json

Data quality

Most of these data are generated automatically and are frequently updated. Quality checks on data are not normally performed. It is possible for incorrect values to appear. Refer to information at About Latest Weather Observations and please check the disclaimer before using these data.